Time;durP1;ratioP1;P1;durP2;ratioP2;P2;SDS_P1;SDS_P2;PMS_P1;PMS_P2;Temp;Humidity;BMP_temperature;BMP_pressure;BME280_temperature;BME280_humidity;BME280_pressure;Samples;Min_cycle;Max_cycle;Signal;HPM_P1;HPM_P2
2021/05/03 00:00:24;;;;;;;;;;;18.80;59.40;;;;;;5054068;28;1223;-64
2021/05/03 00:02:49;;;;;;;;;;;18.80;59.40;;;;;;5053882;28;1957;-64
2021/05/03 00:05:22;;;;;;;;;;;18.80;59.40;;;;;;5053727;28;1099;-65
2021/05/03 00:07:47;;;;;;;;;;;18.80;59.40;;;;;;5036049;28;1063;-65
2021/05/03 00:10:13;;;;;;;;;;;18.80;59.40;;;;;;5053913;28;1201;-66
2021/05/03 00:12:38;;;;;;;;;;;18.80;59.40;;;;;;5053980;28;1131;-66
2021/05/03 00:15:04;;;;;;;;;;;18.80;59.40;;;;;;5020933;28;1245;-65
2021/05/03 00:17:29;;;;;;;;;;;18.80;59.40;;;;;;5033539;28;1135;-64
2021/05/03 00:19:55;;;;;;;;;;;18.70;59.40;;;;;;5016447;28;1382;-65
2021/05/03 00:22:20;;;;;;;;;;;18.70;59.40;;;;;;5040241;28;1906;-64
2021/05/03 00:24:45;;;;;;;;;;;18.80;59.50;;;;;;5053974;28;1024;-65
2021/05/03 00:27:11;;;;;;;;;;;18.80;59.50;;;;;;5053273;28;1161;-65
2021/05/03 00:29:36;;;;;;;;;;;18.70;59.40;;;;;;5053589;28;1270;-65
2021/05/03 00:32:02;;;;;;;;;;;18.70;59.50;;;;;;5053839;28;1281;-65
2021/05/03 00:34:27;;;;;;;;;;;18.70;59.50;;;;;;5053704;28;1087;-65
2021/05/03 00:36:53;;;;;;;;;;;18.70;59.50;;;;;;5053004;28;1060;-65
2021/05/03 00:39:18;;;;;;;;;;;18.70;59.50;;;;;;5053908;28;1353;-65
2021/05/03 00:41:43;;;;;;;;;;;18.70;59.50;;;;;;5035390;28;1906;-65
2021/05/03 00:44:09;;;;;;;;;;;18.70;59.50;;;;;;5053386;28;1055;-65
2021/05/03 00:46:35;;;;;;;;;;;18.70;59.50;;;;;;5052255;28;1107;-65
2021/05/03 00:49:00;;;;;;;;;;;18.70;59.50;;;;;;5053081;28;1278;-65
2021/05/03 00:51:26;;;;;;;;;;;18.70;59.50;;;;;;5052880;28;1107;-65
2021/05/03 00:53:51;;;;;;;;;;;18.70;59.50;;;;;;5035335;28;1079;-64
2021/05/03 00:56:17;;;;;;;;;;;18.70;59.60;;;;;;5052790;28;1052;-66
2021/05/03 00:58:43;;;;;;;;;;;18.70;59.50;;;;;;5053440;28;1276;-64
2021/05/03 01:01:08;;;;;;;;;;;18.70;59.60;;;;;;5034942;28;1902;-64
2021/05/03 01:03:33;;;;;;;;;;;18.70;59.60;;;;;;5052932;28;1182;-65
2021/05/03 01:05:59;;;;;;;;;;;18.70;59.60;;;;;;5052454;28;1095;-63
2021/05/03 01:08:24;;;;;;;;;;;18.70;59.60;;;;;;5034869;28;1290;-64
2021/05/03 01:10:50;;;;;;;;;;;18.70;59.60;;;;;;5052933;28;1063;-65
2021/05/03 01:13:15;;;;;;;;;;;18.70;59.70;;;;;;5035125;28;1094;-64
2021/05/03 01:15:41;;;;;;;;;;;18.70;59.70;;;;;;5033301;28;1228;-64
2021/05/03 01:18:06;;;;;;;;;;;18.70;59.70;;;;;;5032643;28;1100;-65
2021/05/03 01:20:32;;;;;;;;;;;18.70;59.70;;;;;;5014897;28;1387;-64
2021/05/03 01:22:58;;;;;;;;;;;18.70;59.70;;;;;;5032201;28;1902;-64
2021/05/03 01:25:27;;;;;;;;;;;18.70;59.70;;;;;;5033219;28;1671;-64
2021/05/03 01:27:52;;;;;;;;;;;18.70;59.70;;;;;;5016440;28;1089;-65
2021/05/03 01:30:18;;;;;;;;;;;18.70;59.70;;;;;;5015577;28;1209;-64
2021/05/03 01:32:43;;;;;;;;;;;18.70;59.70;;;;;;5033466;28;1096;-64
2021/05/03 01:35:09;;;;;;;;;;;18.60;59.70;;;;;;5033187;28;1147;-68
2021/05/03 01:37:35;;;;;;;;;;;18.70;59.70;;;;;;5015542;28;1318;-65
2021/05/03 01:40:00;;;;;;;;;;;18.60;59.70;;;;;;5049313;28;1308;-64
2021/05/03 01:42:26;;;;;;;;;;;18.60;59.70;;;;;;5025057;28;1907;-64
2021/05/03 01:44:59;;;;;;;;;;;18.60;59.70;;;;;;5042939;28;1166;-65
2021/05/03 01:47:24;;;;;;;;;;;18.60;59.70;;;;;;5041433;28;1204;-67
2021/05/03 01:49:49;;;;;;;;;;;18.60;59.80;;;;;;5042114;28;1315;-65
2021/05/03 01:52:15;;;;;;;;;;;18.60;59.70;;;;;;5043617;28;1236;-64
2021/05/03 01:54:40;;;;;;;;;;;18.60;59.70;;;;;;5023566;28;1295;-65
2021/05/03 01:57:06;;;;;;;;;;;18.60;59.80;;;;;;5041869;28;1349;-65
2021/05/03 01:59:33;;;;;;;;;;;18.60;59.80;;;;;;5023054;28;1280;-65
2021/05/03 02:01:59;;;;;;;;;;;18.60;59.80;;;;;;5043049;28;1961;-64
2021/05/03 02:04:25;;;;;;;;;;;18.60;59.80;;;;;;5045275;28;1260;-65
2021/05/03 02:06:50;;;;;;;;;;;18.60;59.80;;;;;;5034703;28;1169;-65
2021/05/03 02:09:15;;;;;;;;;;;18.60;59.80;;;;;;5052869;28;1237;-65
2021/05/03 02:11:41;;;;;;;;;;;18.60;59.80;;;;;;5052842;28;1088;-65
2021/05/03 02:14:06;;;;;;;;;;;18.60;59.80;;;;;;5046544;28;1182;-66
2021/05/03 02:16:32;;;;;;;;;;;18.60;59.80;;;;;;5031317;28;1240;-65
2021/05/03 02:18:58;;;;;;;;;;;18.60;59.80;;;;;;5031577;28;1302;-65
2021/05/03 02:21:23;;;;;;;;;;;18.50;59.70;;;;;;5032946;28;1911;-65
2021/05/03 02:23:48;;;;;;;;;;;18.60;59.80;;;;;;5015160;28;1167;-66
2021/05/03 02:26:14;;;;;;;;;;;18.60;59.80;;;;;;5014811;28;1089;-64
2021/05/03 02:28:40;;;;;;;;;;;18.60;59.80;;;;;;5032497;28;1279;-64
2021/05/03 02:31:05;;;;;;;;;;;18.60;59.80;;;;;;5032517;28;1120;-64
2021/05/03 02:33:30;;;;;;;;;;;18.60;59.80;;;;;;5032717;28;1198;-64
2021/05/03 02:35:56;;;;;;;;;;;18.60;59.80;;;;;;5032456;28;1171;-65
2021/05/03 02:38:23;;;;;;;;;;;18.60;59.80;;;;;;5001283;28;1382;-65
2021/05/03 02:40:49;;;;;;;;;;;18.60;59.80;;;;;;5019067;28;1096;-65
2021/05/03 02:43:14;;;;;;;;;;;18.60;59.90;;;;;;5036563;28;1906;-65
2021/05/03 02:45:39;;;;;;;;;;;18.60;59.90;;;;;;5036307;28;1072;-65
2021/05/03 02:48:05;;;;;;;;;;;18.60;59.90;;;;;;5036735;28;1179;-64
2021/05/03 02:50:30;;;;;;;;;;;18.50;59.80;;;;;;5036823;28;1196;-65
2021/05/03 02:52:56;;;;;;;;;;;18.60;59.90;;;;;;5036388;28;1136;-65
2021/05/03 02:55:21;;;;;;;;;;;18.60;59.90;;;;;;5036262;28;1052;-64
2021/05/03 02:57:47;;;;;;;;;;;18.60;59.90;;;;;;5036437;28;1111;-64
2021/05/03 03:00:14;;;;;;;;;;;18.60;59.90;;;;;;5018608;28;1200;-65
2021/05/03 03:02:39;;;;;;;;;;;18.60;59.90;;;;;;5036262;28;1902;-64
2021/05/03 03:05:05;;;;;;;;;;;18.50;59.90;;;;;;5036337;28;1080;-64
2021/05/03 03:07:30;;;;;;;;;;;18.50;59.90;;;;;;5035913;28;1071;-64
2021/05/03 03:09:56;;;;;;;;;;;18.50;59.90;;;;;;5036165;28;1288;-64
2021/05/03 03:12:21;;;;;;;;;;;18.50;59.90;;;;;;5036134;28;1186;-64
2021/05/03 03:14:46;;;;;;;;;;;18.50;59.90;;;;;;5018627;28;1190;-67
2021/05/03 03:17:12;;;;;;;;;;;18.50;59.90;;;;;;5036150;28;1170;-66
2021/05/03 03:19:38;;;;;;;;;;;18.50;59.90;;;;;;5035957;28;1308;-66
2021/05/03 03:22:07;;;;;;;;;;;18.50;59.90;;;;;;5018051;28;1963;-66
2021/05/03 03:24:32;;;;;;;;;;;18.50;59.90;;;;;;5018333;28;1147;-66
2021/05/03 03:26:58;;;;;;;;;;;18.50;59.90;;;;;;5017896;28;1076;-67
2021/05/03 03:29:23;;;;;;;;;;;18.50;60.00;;;;;;5035608;28;1358;-67
2021/05/03 03:31:48;;;;;;;;;;;18.50;60.00;;;;;;5035751;28;1199;-66
2021/05/03 03:34:14;;;;;;;;;;;18.50;59.90;;;;;;5035827;28;1155;-66
2021/05/03 03:36:39;;;;;;;;;;;18.50;60.00;;;;;;5035302;28;1115;-66
2021/05/03 03:39:06;;;;;;;;;;;18.50;59.90;;;;;;5035577;28;1363;-65
2021/05/03 03:41:32;;;;;;;;;;;18.50;60.00;;;;;;5035511;28;1967;-66
2021/05/03 03:43:57;;;;;;;;;;;18.50;60.00;;;;;;5035571;28;1064;-64
2021/05/03 03:46:22;;;;;;;;;;;18.50;59.90;;;;;;5035167;28;1179;-64
2021/05/03 03:48:48;;;;;;;;;;;18.60;59.90;;;;;;5035336;28;1311;-64
2021/05/03 03:51:13;;;;;;;;;;;18.60;59.90;;;;;;5017770;28;1135;-66
2021/05/03 03:53:39;;;;;;;;;;;18.60;59.80;;;;;;5035125;28;1068;-64
2021/05/03 03:56:05;;;;;;;;;;;18.60;59.80;;;;;;5035028;28;1086;-65
2021/05/03 03:58:30;;;;;;;;;;;18.60;59.80;;;;;;5035066;28;1295;-65
2021/05/03 04:00:56;;;;;;;;;;;18.60;59.80;;;;;;5035192;28;1163;-65
2021/05/03 04:03:24;;;;;;;;;;;18.60;59.70;;;;;;5035214;28;1894;-64
2021/05/03 04:08:45;;;;;;;;;;;18.60;59.70;;;;;;5055080;28;1276;-65
2021/05/03 04:11:26;;;;;;;;;;;18.60;59.60;;;;;;5055019;28;956;-65
2021/05/03 04:24:53;;;;;;;;;;;18.70;59.50;;;;;;5035231;28;1198;-65
2021/05/03 04:27:13;;;;;;;;;;;18.70;59.50;;;;;;5033602;28;1333;-65
2021/05/03 04:29:39;;;;;;;;;;;18.70;59.50;;;;;;5034984;28;1278;-67
2021/05/03 04:32:04;;;;;;;;;;;18.70;59.50;;;;;;5034659;28;1045;-65
2021/05/03 04:34:30;;;;;;;;;;;18.70;59.40;;;;;;5034863;28;1056;-65
2021/05/03 04:36:55;;;;;;;;;;;18.70;59.40;;;;;;5034124;28;1144;-67
2021/05/03 04:39:21;;;;;;;;;;;18.70;59.40;;;;;;5034398;28;1255;-65
2021/05/03 04:41:46;;;;;;;;;;;18.70;59.40;;;;;;5034278;28;1993;-66
2021/05/03 04:44:11;;;;;;;;;;;18.80;59.40;;;;;;5034302;28;1127;-68
2021/05/03 04:46:37;;;;;;;;;;;18.70;59.40;;;;;;5033875;28;1155;-65
2021/05/03 04:49:02;;;;;;;;;;;18.70;59.40;;;;;;5034624;28;1287;-65
2021/05/03 04:51:28;;;;;;;;;;;18.70;59.40;;;;;;5034503;28;1199;-67
2021/05/03 04:53:53;;;;;;;;;;;18.80;59.40;;;;;;5034242;28;1064;-64
2021/05/03 04:56:18;;;;;;;;;;;18.80;59.40;;;;;;5033855;28;1123;-65
2021/05/03 04:58:44;;;;;;;;;;;18.70;59.30;;;;;;5033868;28;1373;-67
2021/05/03 05:01:09;;;;;;;;;;;18.70;59.30;;;;;;5033304;28;1914;-65
2021/05/03 05:03:35;;;;;;;;;;;18.80;59.40;;;;;;5034109;28;1262;-65
2021/05/03 05:06:00;;;;;;;;;;;18.80;59.40;;;;;;5033794;28;1131;-67
2021/05/03 05:08:26;;;;;;;;;;;18.80;59.30;;;;;;5034002;28;1264;-65
2021/05/03 05:10:51;;;;;;;;;;;18.80;59.40;;;;;;5033841;28;1060;-65
2021/05/03 05:13:17;;;;;;;;;;;18.80;59.30;;;;;;5033835;28;1088;-65
2021/05/03 05:15:42;;;;;;;;;;;18.80;59.40;;;;;;5033316;28;1202;-65
2021/05/03 05:18:08;;;;;;;;;;;18.80;59.30;;;;;;5033872;28;1049;-65
2021/05/03 05:20:33;;;;;;;;;;;18.80;59.30;;;;;;5033516;28;1296;-66
2021/05/03 05:22:59;;;;;;;;;;;18.80;59.30;;;;;;5016014;28;1894;-67
2021/05/03 05:25:24;;;;;;;;;;;18.80;59.30;;;;;;5033376;28;1136;-66
2021/05/03 05:27:49;;;;;;;;;;;18.80;59.30;;;;;;5033406;28;1120;-65
2021/05/03 05:30:15;;;;;;;;;;;18.80;59.30;;;;;;5033655;28;1275;-68
2021/05/03 05:32:41;;;;;;;;;;;18.80;59.30;;;;;;5015988;28;1167;-66
2021/05/03 05:35:08;;;;;;;;;;;18.80;59.30;;;;;;5033793;28;1124;-65
2021/05/03 05:37:34;;;;;;;;;;;18.80;59.30;;;;;;5033697;28;1036;-66
2021/05/03 05:39:59;;;;;;;;;;;18.80;59.30;;;;;;5033157;28;1278;-66
2021/05/03 05:42:24;;;;;;;;;;;18.80;59.30;;;;;;5015538;28;1898;-66
2021/05/03 05:44:50;;;;;;;;;;;18.80;59.30;;;;;;5015423;28;1530;-66
2021/05/03 05:47:15;;;;;;;;;;;18.80;59.30;;;;;;5033103;28;1103;-65
2021/05/03 05:49:41;;;;;;;;;;;18.80;59.30;;;;;;5033153;28;1274;-66
2021/05/03 05:52:06;;;;;;;;;;;18.80;59.30;;;;;;5033136;28;1009;-66
2021/05/03 05:54:32;;;;;;;;;;;18.80;59.20;;;;;;5033145;28;1170;-65
2021/05/03 05:56:57;;;;;;;;;;;18.80;59.20;;;;;;5032830;28;1115;-66
2021/05/03 05:59:23;;;;;;;;;;;18.90;59.30;;;;;;5032923;28;1335;-66
2021/05/03 06:01:48;;;;;;;;;;;18.90;59.30;;;;;;5032925;28;1964;-67
2021/05/03 06:04:17;;;;;;;;;;;18.80;59.20;;;;;;5015483;28;1159;-66
2021/05/03 06:06:42;;;;;;;;;;;18.80;59.80;;;;;;5033061;28;1095;-65
2021/05/03 06:09:08;;;;;;;;;;;18.80;59.20;;;;;;5032840;28;1200;-65
2021/05/03 06:11:33;;;;;;;;;;;18.90;59.20;;;;;;5032133;28;1152;-66
2021/05/03 06:13:58;;;;;;;;;;;18.90;59.20;;;;;;5032506;28;1064;-65
2021/05/03 06:16:24;;;;;;;;;;;18.90;59.20;;;;;;5044403;28;1118;-66
2021/05/03 06:18:49;;;;;;;;;;;18.80;59.20;;;;;;5052678;28;1304;-66
2021/05/03 06:21:15;;;;;;;;;;;18.80;59.20;;;;;;5036439;28;1902;-65
2021/05/03 06:23:40;;;;;;;;;;;18.80;59.20;;;;;;5032247;28;1195;-65
2021/05/03 06:26:06;;;;;;;;;;;18.80;59.20;;;;;;5017664;28;1734;-65
2021/05/03 06:28:31;;;;;;;;;;;18.80;59.20;;;;;;5023950;28;1292;-65
2021/05/03 06:30:58;;;;;;;;;;;18.80;59.20;;;;;;5011154;28;1162;-67
2021/05/03 06:33:23;;;;;;;;;;;18.80;59.20;;;;;;5023640;28;1858;-66
2021/05/03 06:35:49;;;;;;;;;;;18.80;59.10;;;;;;5026344;28;1400;-65
2021/05/03 06:38:15;;;;;;;;;;;18.80;59.20;;;;;;5013535;28;1467;-64
2021/05/03 06:40:40;;;;;;;;;;;18.80;59.10;;;;;;5030785;28;1273;-65
2021/05/03 06:43:05;;;;;;;;;;;18.80;59.20;;;;;;5032093;28;1910;-64
2021/05/03 06:45:33;;;;;;;;;;;18.80;59.10;;;;;;5032238;28;1080;-64
2021/05/03 06:47:58;;;;;;;;;;;18.90;59.10;;;;;;5032834;28;1119;-65
2021/05/03 06:50:24;;;;;;;;;;;18.80;59.10;;;;;;5032377;28;1215;-65
2021/05/03 06:52:50;;;;;;;;;;;18.80;59.10;;;;;;5032335;28;1096;-65
2021/05/03 06:55:16;;;;;;;;;;;18.90;59.20;;;;;;5032168;28;1159;-65
2021/05/03 06:57:41;;;;;;;;;;;18.90;59.10;;;;;;5032254;28;1088;-66
2021/05/03 07:00:07;;;;;;;;;;;18.90;59.10;;;;;;5032354;28;1220;-66
2021/05/03 07:02:32;;;;;;;;;;;18.90;59.20;;;;;;5032235;28;1914;-67
2021/05/03 07:04:58;;;;;;;;;;;18.90;59.10;;;;;;5032493;28;1032;-69
2021/05/03 07:07:23;;;;;;;;;;;18.90;59.10;;;;;;5032427;28;1100;-66
2021/05/03 07:09:49;;;;;;;;;;;18.90;59.10;;;;;;5032318;28;1229;-65
2021/05/03 07:12:15;;;;;;;;;;;18.90;59.10;;;;;;5032102;28;1104;-65
2021/05/03 07:14:40;;;;;;;;;;;18.90;59.10;;;;;;5032179;28;1056;-65
2021/05/03 07:17:06;;;;;;;;;;;18.90;59.10;;;;;;5032048;28;1060;-65
2021/05/03 07:19:32;;;;;;;;;;;18.90;59.10;;;;;;5032381;28;1274;-65
2021/05/03 07:21:57;;;;;;;;;;;18.90;59.10;;;;;;5014478;28;1911;-66
2021/05/03 07:24:23;;;;;;;;;;;18.90;59.10;;;;;;5034832;28;1127;-66
2021/05/03 07:26:48;;;;;;;;;;;18.90;59.10;;;;;;5035260;28;1068;-66
2021/05/03 07:29:13;;;;;;;;;;;18.90;59.10;;;;;;5035745;28;1289;-67
2021/05/03 07:31:39;;;;;;;;;;;18.90;59.10;;;;;;5035681;28;1206;-66
2021/05/03 07:34:04;;;;;;;;;;;18.90;59.10;;;;;;5035752;28;997;-66
2021/05/03 07:36:30;;;;;;;;;;;18.90;59.10;;;;;;5035189;28;1057;-66
2021/05/03 07:38:55;;;;;;;;;;;18.90;59.10;;;;;;5035594;28;1362;-66
2021/05/03 07:41:20;;;;;;;;;;;18.90;59.10;;;;;;5035246;28;1977;-67
2021/05/03 07:43:46;;;;;;;;;;;18.90;59.10;;;;;;5035655;28;1048;-67
2021/05/03 07:46:11;;;;;;;;;;;18.90;59.10;;;;;;5035234;28;1064;-66
2021/05/03 07:48:37;;;;;;;;;;;18.90;59.10;;;;;;5035529;28;1283;-66
2021/05/03 07:51:03;;;;;;;;;;;18.90;59.10;;;;;;5035410;28;1186;-67
2021/05/03 07:53:28;;;;;;;;;;;18.90;59.10;;;;;;5035238;28;1116;-66
2021/05/03 07:55:53;;;;;;;;;;;18.90;59.10;;;;;;5034848;28;1127;-66
2021/05/03 07:58:19;;;;;;;;;;;18.90;59.10;;;;;;5035097;28;1284;-66
2021/05/03 08:00:44;;;;;;;;;;;18.90;59.10;;;;;;5035289;28;1211;-65
2021/05/03 08:03:10;;;;;;;;;;;18.90;59.10;;;;;;5035167;28;1890;-66
2021/05/03 08:05:35;;;;;;;;;;;18.90;59.10;;;;;;5034798;28;1127;-66
2021/05/03 08:08:01;;;;;;;;;;;18.90;59.10;;;;;;5035020;28;1056;-66
2021/05/03 08:10:27;;;;;;;;;;;18.90;59.10;;;;;;5034820;28;1300;-66
2021/05/03 08:12:53;;;;;;;;;;;18.90;59.10;;;;;;5035057;28;1131;-66
2021/05/03 08:15:20;;;;;;;;;;;18.90;59.10;;;;;;5034775;28;1182;-67
2021/05/03 08:17:45;;;;;;;;;;;18.90;59.10;;;;;;5035019;28;1065;-66
2021/05/03 08:20:12;;;;;;;;;;;18.90;59.10;;;;;;5034834;28;1278;-67
2021/05/03 08:22:37;;;;;;;;;;;18.90;59.10;;;;;;5017193;28;1925;-66
2021/05/03 08:25:03;;;;;;;;;;;18.90;59.10;;;;;;5034491;28;1096;-66
2021/05/03 08:27:28;;;;;;;;;;;18.90;59.10;;;;;;5016881;28;1124;-66
2021/05/03 08:29:54;;;;;;;;;;;18.90;59.10;;;;;;5034543;28;1306;-67
2021/05/03 08:32:19;;;;;;;;;;;18.90;59.10;;;;;;5034738;28;1063;-66
2021/05/03 08:34:45;;;;;;;;;;;18.90;59.10;;;;;;5015825;28;1478;-66
2021/05/03 08:37:12;;;;;;;;;;;18.90;59.10;;;;;;5034298;28;1049;-66
2021/05/03 08:39:37;;;;;;;;;;;18.90;59.10;;;;;;5034187;28;1393;-66
2021/05/03 08:42:03;;;;;;;;;;;18.90;59.10;;;;;;5034131;28;1963;-67
2021/05/03 08:44:29;;;;;;;;;;;18.90;59.10;;;;;;5016749;28;1049;-67
2021/05/03 08:46:55;;;;;;;;;;;18.90;59.10;;;;;;5034394;28;1135;-66
2021/05/03 08:50:08;;;;;;;;;;;18.90;59.10;;;;;;5016527;28;1275;-66
2021/05/03 08:52:19;;;;;;;;;;;18.90;59.10;;;;;;5023267;28;1131;-67
2021/05/03 08:54:45;;;;;;;;;;;18.90;59.10;;;;;;5034429;28;1000;-66
2021/05/03 08:57:11;;;;;;;;;;;18.90;59.10;;;;;;5016108;28;1135;-67
2021/05/03 08:59:37;;;;;;;;;;;18.90;59.10;;;;;;5034119;28;1306;-66
2021/05/03 09:02:06;;;;;;;;;;;18.90;59.10;;;;;;5016282;28;1898;-65
2021/05/03 09:04:31;;;;;;;;;;;18.90;59.10;;;;;;5029062;28;2259;-66
2021/05/03 09:07:16;;;;;;;;;;;18.90;59.10;;;;;;5031392;28;1239;-66
2021/05/03 09:09:42;;;;;;;;;;;18.90;59.10;;;;;;5010106;28;1461;-67
2021/05/03 09:12:12;;;;;;;;;;;18.90;59.10;;;;;;5033846;28;1190;-66
2021/05/03 09:14:44;;;;;;;;;;;18.90;59.10;;;;;;5033834;28;1076;-65
2021/05/03 09:17:18;;;;;;;;;;;18.90;59.10;;;;;;5033275;28;1135;-66
2021/05/03 09:19:43;;;;;;;;;;;18.90;59.10;;;;;;5015994;28;1348;-66
2021/05/03 09:22:09;;;;;;;;;;;18.90;59.10;;;;;;5015089;28;1972;-66
2021/05/03 09:24:36;;;;;;;;;;;18.90;59.00;;;;;;5011757;28;1104;-65
2021/05/03 09:27:06;;;;;;;;;;;18.90;59.00;;;;;;5029686;28;1256;-66
2021/05/03 09:29:39;;;;;;;;;;;18.90;59.00;;;;;;5033441;28;1248;-66
2021/05/03 09:32:06;;;;;;;;;;;18.90;59.00;;;;;;5033564;28;1136;-66
2021/05/03 09:34:32;;;;;;;;;;;18.90;59.00;;;;;;5033448;28;994;-65
2021/05/03 09:37:16;;;;;;;;;;;18.90;59.10;;;;;;5033227;28;1155;-65
2021/05/03 09:39:43;;;;;;;;;;;18.90;59.10;;;;;;5033406;28;1279;-66
2021/05/03 09:42:08;;;;;;;;;;;18.90;59.00;;;;;;5025031;28;1918;-67
2021/05/03 09:44:33;;;;;;;;;;;18.90;59.00;;;;;;5018133;28;1050;-66
2021/05/03 09:46:59;;;;;;;;;;;18.90;59.10;;;;;;5029608;28;1935;-66
2021/05/03 09:49:24;;;;;;;;;;;18.90;59.10;;;;;;5031922;28;1380;-67
2021/05/03 09:51:50;;;;;;;;;;;18.90;59.10;;;;;;5035340;28;1160;-66
2021/05/03 09:54:16;;;;;;;;;;;18.90;59.10;;;;;;5003698;28;1719;-66
2021/05/03 09:57:11;;;;;;;;;;;18.90;59.10;;;;;;5031052;28;1194;-67
2021/05/03 09:59:38;;;;;;;;;;;18.90;59.10;;;;;;5005963;28;1303;-65
2021/05/03 10:02:24;;;;;;;;;;;18.90;59.10;;;;;;5014149;28;1972;-66
2021/05/03 10:04:55;;;;;;;;;;;18.90;59.10;;;;;;5032109;28;1108;-66
2021/05/03 10:07:22;;;;;;;;;;;18.90;59.10;;;;;;5048317;28;1111;-65
2021/05/03 10:10:01;;;;;;;;;;;18.90;59.10;;;;;;5051782;28;1279;-66
2021/05/03 10:12:26;;;;;;;;;;;18.90;59.10;;;;;;5035776;28;1056;-66
2021/05/03 10:14:52;;;;;;;;;;;18.90;59.10;;;;;;5039626;28;1324;-66
2021/05/03 10:17:18;;;;;;;;;;;18.90;59.10;;;;;;5026208;28;1959;-66
2021/05/03 10:19:43;;;;;;;;;;;18.90;59.10;;;;;;5030092;28;1295;-66
2021/05/03 10:22:15;;;;;;;;;;;18.90;59.10;;;;;;5043315;28;2034;-66
2021/05/03 10:24:41;;;;;;;;;;;18.90;59.00;;;;;;5034745;28;1882;-65
2021/05/03 10:27:06;;;;;;;;;;;18.90;59.00;;;;;;5029918;28;1266;-65
2021/05/03 10:29:41;;;;;;;;;;;18.80;59.00;;;;;;5023902;28;1663;-65
2021/05/03 10:32:07;;;;;;;;;;;18.80;59.00;;;;;;5034275;28;1103;-66
2021/05/03 10:34:36;;;;;;;;;;;18.80;59.00;;;;;;5045043;28;1064;-65
2021/05/03 10:37:01;;;;;;;;;;;18.80;59.10;;;;;;5031229;28;1254;-64
2021/05/03 10:39:30;;;;;;;;;;;18.90;59.00;;;;;;5031405;28;1217;-66
2021/05/03 10:42:06;;;;;;;;;;;18.80;59.00;;;;;;5031487;28;1964;-66
2021/05/03 10:44:32;;;;;;;;;;;18.90;59.00;;;;;;5025666;28;1877;-66
2021/05/03 10:47:09;;;;;;;;;;;18.90;59.00;;;;;;5005435;28;1632;-66
2021/05/03 10:49:42;;;;;;;;;;;18.90;59.00;;;;;;5031707;28;1576;-66
2021/05/03 10:52:09;;;;;;;;;;;18.90;59.10;;;;;;5014454;28;1108;-66
2021/05/03 10:54:42;;;;;;;;;;;18.80;59.00;;;;;;5031562;28;1103;-65
2021/05/03 10:57:28;;;;;;;;;;;18.90;59.10;;;;;;5014291;28;1057;-66
2021/05/03 10:59:58;;;;;;;;;;;18.80;59.00;;;;;;5034543;28;1303;-66
2021/05/03 11:02:24;;;;;;;;;;;18.80;59.10;;;;;;5035058;28;1952;-66
2021/05/03 11:05:09;;;;;;;;;;;18.90;59.10;;;;;;5018055;28;1163;-66
2021/05/03 11:07:34;;;;;;;;;;;18.80;59.10;;;;;;5034952;28;1055;-66
2021/05/03 11:10:00;;;;;;;;;;;18.90;59.10;;;;;;5035494;28;1197;-66
2021/05/03 11:12:26;;;;;;;;;;;18.80;59.10;;;;;;5035471;28;1096;-67
2021/05/03 11:15:07;;;;;;;;;;;18.90;59.10;;;;;;5035164;28;1384;-66
2021/05/03 11:17:33;;;;;;;;;;;18.80;59.10;;;;;;5034908;28;1068;-66
2021/05/03 11:20:09;;;;;;;;;;;18.80;59.10;;;;;;5017026;28;1283;-66
2021/05/03 11:22:40;;;;;;;;;;;18.80;59.10;;;;;;5018665;28;1910;-66
2021/05/03 11:25:10;;;;;;;;;;;18.80;59.10;;;;;;5034777;28;1040;-65
2021/05/03 11:27:42;;;;;;;;;;;18.80;59.20;;;;;;5017424;28;1103;-66
2021/05/03 11:30:12;;;;;;;;;;;18.80;59.20;;;;;;5017956;28;1221;-66
2021/05/03 11:32:39;;;;;;;;;;;18.80;59.20;;;;;;5034723;28;1112;-66
2021/05/03 11:35:34;;;;;;;;;;;18.80;59.20;;;;;;5034791;28;1036;-66
2021/05/03 11:38:08;;;;;;;;;;;18.80;59.20;;;;;;5018526;28;1060;-66
2021/05/03 11:43:55;;;;;;;;;;;18.80;59.20;;;;;;5042334;28;1906;-66
2021/05/03 11:46:26;;;;;;;;;;;18.80;59.20;;;;;;5054128;28;1079;-66
2021/05/03 11:48:54;;;;;;;;;;;18.80;59.30;;;;;;5054425;28;1397;-65
2021/05/03 11:51:20;;;;;;;;;;;18.80;59.30;;;;;;5036192;28;1068;-66
2021/05/03 11:53:45;;;;;;;;;;;18.80;59.30;;;;;;5054269;28;1099;-67
2021/05/03 11:56:29;;;;;;;;;;;18.80;59.30;;;;;;5036249;28;1064;-67
2021/05/03 11:58:55;;;;;;;;;;;18.80;59.30;;;;;;5054036;28;1213;-67
2021/05/03 12:01:21;;;;;;;;;;;18.80;59.90;;;;;;5054084;28;1901;-67
2021/05/03 12:03:47;;;;;;;;;;;18.80;59.30;;;;;;5053945;28;1047;-67
2021/05/03 12:06:31;;;;;;;;;;;18.80;59.40;;;;;;5053886;28;1090;-66
2021/05/03 12:09:00;;;;;;;;;;;18.70;59.90;;;;;;5053907;28;1274;-67
2021/05/03 12:11:26;;;;;;;;;;;18.80;59.40;;;;;;5033752;28;1805;-66
2021/05/03 12:13:52;;;;;;;;;;;18.80;59.40;;;;;;5033838;28;1079;-67
2021/05/03 12:16:32;;;;;;;;;;;18.80;59.40;;;;;;5027757;28;1210;-67
2021/05/03 12:18:58;;;;;;;;;;;18.70;59.40;;;;;;5033654;28;1428;-66
2021/05/03 12:21:23;;;;;;;;;;;18.70;59.40;;;;;;5036281;28;1957;-66
2021/05/03 12:23:48;;;;;;;;;;;18.70;59.40;;;;;;5033962;28;1080;-67
2021/05/03 12:26:14;;;;;;;;;;;18.70;59.40;;;;;;5033451;28;1044;-66
2021/05/03 12:28:39;;;;;;;;;;;18.70;59.40;;;;;;5033096;28;1343;-67
2021/05/03 12:31:05;;;;;;;;;;;18.70;59.40;;;;;;5027401;28;1425;-66
2021/05/03 12:33:34;;;;;;;;;;;18.70;59.40;;;;;;5027613;28;1166;-67
2021/05/03 12:36:00;;;;;;;;;;;18.70;59.40;;;;;;5038612;28;1157;-66
2021/05/03 12:38:28;;;;;;;;;;;18.70;59.50;;;;;;5042263;28;1385;-67
2021/05/03 12:40:53;;;;;;;;;;;18.70;59.50;;;;;;5054272;23;3788;-72
2021/05/03 12:43:21;;;;;;;;;;;18.70;59.50;;;;;;5063992;28;1980;-71
2021/05/03 12:46:35;;;;;;;;;;;18.70;59.50;;;;;;5061105;28;1172;-70
2021/05/03 12:48:46;;;;;;;;;;;18.70;59.50;;;;;;5049226;28;1405;-71
2021/05/03 12:54:01;;;;;;;;;;;18.70;60.10;;;;;;5064637;28;1102;-70
2021/05/03 12:56:39;;;;;;;;;;;18.70;59.50;;;;;;5061109;28;1090;-71
2021/05/03 13:04:19;;;;;;;;;;;18.70;59.60;;;;;;5057587;28;1310;-69
2021/05/03 13:12:35;;;;;;;;;;;18.70;59.60;;;;;;5062823;28;1433;-70
2021/05/03 13:29:02;;;;;;;;;;;18.70;59.50;;;;;;5070189;28;1381;-68
2021/05/03 13:31:28;;;;;;;;;;;18.70;59.50;;;;;;5072237;28;1541;-68
2021/05/03 13:33:54;;;;;;;;;;;18.70;59.50;;;;;;5053064;28;2354;-68
2021/05/03 13:36:19;;;;;;;;;;;18.70;59.50;;;;;;5070890;28;1280;-68
2021/05/03 13:38:47;;;;;;;;;;;18.70;59.50;;;;;;5071104;28;2044;-67
2021/05/03 13:41:12;;;;;;;;;;;18.70;59.50;;;;;;5066633;28;1918;-67
2021/05/03 13:43:38;;;;;;;;;;;18.70;59.50;;;;;;5069054;28;1898;-67
2021/05/03 13:46:03;;;;;;;;;;;18.70;59.50;;;;;;5071773;28;1654;-67
2021/05/03 13:48:29;;;;;;;;;;;18.70;59.50;;;;;;5071972;28;1340;-67
2021/05/03 13:50:54;;;;;;;;;;;18.70;59.40;;;;;;5072278;28;1396;-67
2021/05/03 13:53:20;;;;;;;;;;;18.70;59.40;;;;;;5072214;28;1436;-70
2021/05/03 13:55:45;;;;;;;;;;;18.70;59.40;;;;;;5072131;28;1325;-68
2021/05/03 13:58:10;;;;;;;;;;;18.70;59.40;;;;;;5072276;28;1378;-68
2021/05/03 14:00:36;;;;;;;;;;;18.70;59.40;;;;;;5071849;28;1731;-68
2021/05/03 14:03:01;;;;;;;;;;;18.70;59.50;;;;;;5072019;28;1949;-68
2021/05/03 14:05:28;;;;;;;;;;;18.70;59.40;;;;;;5071714;28;1167;-68
2021/05/03 14:07:53;;;;;;;;;;;18.70;59.50;;;;;;5072271;28;838;-68
2021/05/03 14:10:19;;;;;;;;;;;18.70;59.40;;;;;;5072019;28;1443;-68
2021/05/03 14:12:44;;;;;;;;;;;18.70;59.40;;;;;;5070903;28;1586;-69
2021/05/03 14:15:10;;;;;;;;;;;18.70;59.40;;;;;;5071576;28;1387;-69
2021/05/03 14:17:36;;;;;;;;;;;18.70;59.40;;;;;;5072013;28;1417;-69
2021/05/03 14:20:02;;;;;;;;;;;18.70;59.40;;;;;;5066841;28;1520;-70
2021/05/03 14:22:27;;;;;;;;;;;18.70;59.40;;;;;;5070670;28;1973;-70
2021/05/03 14:24:53;;;;;;;;;;;18.70;59.40;;;;;;5071895;28;1354;-70
2021/05/03 14:27:18;;;;;;;;;;;18.70;59.40;;;;;;5071556;28;1643;-70
2021/05/03 14:29:51;;;;;;;;;;;18.70;60.00;;;;;;5071740;28;1679;-70
2021/05/03 14:32:34;;;;;;;;;;;18.70;59.40;;;;;;5071945;28;1338;-70
2021/05/03 14:35:05;;;;;;;;;;;18.70;59.40;;;;;;5075702;28;1587;-70
2021/05/03 14:37:31;;;;;;;;;;;18.70;59.40;;;;;;5074046;28;1460;-70
2021/05/03 14:39:56;;;;;;;;;;;18.80;59.40;;;;;;5074603;28;1560;-71
2021/05/03 14:42:22;;;;;;;;;;;18.70;59.40;;;;;;5057974;28;1902;-72
2021/05/03 14:44:47;;;;;;;;;;;18.70;59.40;;;;;;5076721;28;1642;-71
2021/05/03 14:47:18;;;;;;;;;;;18.70;59.90;;;;;;5075370;28;1384;-72
2021/05/03 14:49:51;;;;;;;;;;;18.70;59.40;;;;;;5076758;28;1403;-71
2021/05/03 14:52:34;;;;;;;;;;;18.70;59.40;;;;;;5075845;28;1578;-71
2021/05/03 14:55:00;;;;;;;;;;;18.70;59.40;;;;;;5076630;28;1344;-70
2021/05/03 14:57:25;;;;;;;;;;;18.80;59.40;;;;;;5076385;28;1592;-71
2021/05/03 14:59:51;;;;;;;;;;;18.70;59.40;;;;;;5058734;28;1693;-71
2021/05/03 15:02:17;;;;;;;;;;;18.80;59.40;;;;;;5076428;28;1973;-70
2021/05/03 15:04:42;;;;;;;;;;;18.70;59.40;;;;;;5076465;28;1373;-70
2021/05/03 15:07:11;;;;;;;;;;;18.70;59.40;;;;;;5076035;28;1317;-71
2021/05/03 15:09:41;;;;;;;;;;;18.70;59.40;;;;;;5076388;28;1766;-69
2021/05/03 15:12:10;;;;;;;;;;;18.70;59.40;;;;;;5072324;28;1639;-68
2021/05/03 15:17:33;;;;;;;;;;;18.80;59.40;;;;;;5074872;28;1699;-68